createdAt,value
2022-08-02T00:00:58.655Z,18.00
2022-08-02T00:03:26.703Z,17.70
2022-08-02T00:05:54.654Z,18.00
2022-08-02T00:08:22.551Z,18.00
2022-08-02T00:10:51.777Z,17.80
2022-08-02T00:13:19.666Z,17.60
2022-08-02T00:15:47.571Z,17.60
2022-08-02T00:18:16.036Z,17.70
2022-08-02T00:20:43.892Z,17.90
2022-08-02T00:23:11.733Z,17.80
2022-08-02T00:25:54.776Z,18.10
2022-08-02T00:28:27.978Z,18.10
2022-08-02T00:30:56.895Z,17.90
2022-08-02T00:34:28.117Z,17.50
2022-08-02T00:36:12.628Z,17.70
2022-08-02T00:38:40.542Z,17.80
2022-08-02T00:41:13.149Z,17.90
2022-08-02T00:43:42.464Z,17.70
2022-08-02T00:46:10.396Z,17.70
2022-08-02T00:48:42.995Z,17.60
2022-08-02T00:51:11.100Z,17.70
2022-08-02T00:53:38.999Z,17.70
2022-08-02T00:56:06.908Z,17.90
2022-08-02T00:58:34.753Z,18.10
2022-08-02T01:01:04.088Z,17.80
2022-08-02T01:03:31.983Z,18.00
2022-08-02T01:06:15.134Z,18.10
2022-08-02T01:08:43.883Z,17.90
2022-08-02T01:11:12.452Z,18.40
2022-08-02T01:13:40.327Z,18.30
2022-08-02T01:16:12.994Z,18.50
2022-08-02T01:18:43.112Z,18.30
2022-08-02T01:21:19.622Z,18.20
2022-08-02T01:23:55.356Z,18.00
2022-08-02T01:26:32.961Z,18.20
2022-08-02T01:29:03.703Z,18.10
2022-08-02T01:31:33.717Z,18.10
2022-08-02T01:34:03.772Z,18.00
2022-08-02T01:36:33.756Z,18.00
2022-08-02T01:39:01.609Z,18.00
2022-08-02T01:41:29.661Z,17.80
2022-08-02T01:43:58.920Z,17.90
2022-08-02T01:46:28.592Z,18.10
2022-08-02T01:48:57.488Z,18.10
2022-08-02T01:51:45.940Z,18.00
2022-08-02T01:54:16.726Z,17.80
2022-08-02T01:56:44.624Z,17.70
2022-08-02T01:59:14.146Z,18.00
2022-08-02T02:01:43.386Z,17.80
2022-08-02T02:04:11.312Z,17.80
2022-08-02T02:06:39.152Z,17.70
2022-08-02T02:09:06.972Z,17.80
2022-08-02T02:12:09.790Z,17.90
2022-08-02T02:14:22.554Z,17.90
2022-08-02T02:16:51.702Z,17.90
2022-08-02T02:19:20.906Z,18.00
2022-08-02T02:21:49.342Z,17.80
2022-08-02T02:24:17.163Z,17.90
2022-08-02T02:26:52.034Z,17.80
2022-08-02T02:29:21.829Z,17.90
2022-08-02T02:31:50.991Z,17.90
2022-08-02T02:34:22.017Z,17.80
2022-08-02T02:36:51.691Z,17.80
2022-08-02T02:39:21.213Z,17.90
2022-08-02T02:41:49.891Z,17.80
2022-08-02T02:44:19.738Z,17.80
2022-08-02T02:46:48.653Z,17.70
2022-08-02T02:49:17.940Z,17.80
2022-08-02T02:51:45.783Z,18.10
2022-08-02T02:54:32.123Z,18.30
2022-08-02T02:57:02.670Z,18.40
2022-08-02T02:59:30.449Z,18.20
2022-08-02T03:01:58.995Z,18.10
2022-08-02T03:04:56.355Z,18.30
2022-08-02T03:07:16.718Z,18.20
2022-08-02T03:09:44.587Z,18.00
2022-08-02T03:12:15.218Z,18.00
2022-08-02T03:14:49.397Z,18.00
2022-08-02T03:17:17.490Z,18.00
2022-08-02T03:19:47.244Z,17.90
2022-08-02T03:22:15.045Z,17.80
2022-08-02T03:24:42.852Z,17.70
2022-08-02T03:27:11.133Z,17.80
2022-08-02T03:29:38.952Z,17.70
2022-08-02T03:32:07.184Z,17.80
2022-08-02T03:34:34.990Z,17.80
2022-08-02T03:37:04.153Z,17.80
2022-08-02T03:39:31.974Z,17.80
2022-08-02T03:41:59.802Z,17.70
2022-08-02T03:44:27.614Z,17.70
2022-08-02T03:46:55.434Z,17.70
2022-08-02T03:49:23.332Z,17.50
2022-08-02T03:51:51.186Z,17.90
2022-08-02T03:54:20.355Z,18.00
2022-08-02T03:56:48.257Z,17.90
2022-08-02T03:59:16.231Z,17.80
2022-08-02T04:01:44.130Z,17.80
2022-08-02T04:04:11.971Z,17.80
2022-08-02T04:06:41.651Z,17.70
2022-08-02T04:09:09.849Z,17.70
2022-08-02T04:11:39.043Z,17.50
2022-08-02T04:14:09.898Z,17.50
2022-08-02T04:16:41.532Z,17.50
2022-08-02T04:19:10.342Z,17.50
2022-08-02T04:21:51.701Z,17.50
2022-08-02T04:24:22.925Z,17.60
2022-08-02T04:26:54.470Z,17.60
2022-08-02T04:29:25.534Z,17.50
2022-08-02T04:31:53.496Z,17.60
2022-08-02T04:34:21.383Z,17.70
2022-08-02T04:36:49.198Z,17.50
2022-08-02T04:39:17.025Z,17.50
2022-08-02T04:41:47.914Z,17.60
2022-08-02T04:44:17.267Z,17.50
2022-08-02T04:46:45.622Z,17.50
2022-08-02T04:49:13.539Z,17.60
2022-08-02T04:51:42.512Z,17.60
2022-08-02T04:54:11.116Z,17.60
2022-08-02T04:56:38.962Z,17.60
2022-08-02T04:59:07.025Z,17.60
2022-08-02T05:01:36.247Z,17.60
2022-08-02T05:04:04.079Z,17.60
2022-08-02T05:06:32.010Z,17.60
2022-08-02T05:09:00.073Z,17.70
2022-08-02T05:11:34.670Z,17.70
2022-08-02T05:14:04.708Z,17.60
2022-08-02T05:16:32.794Z,17.70
2022-08-02T05:19:04.086Z,17.90
2022-08-02T05:21:32.473Z,17.80
2022-08-02T05:24:00.643Z,17.70
2022-08-02T05:26:28.821Z,17.70
2022-08-02T05:28:56.755Z,17.70
2022-08-02T05:31:24.701Z,17.90
2022-08-02T05:33:52.872Z,17.80
2022-08-02T05:36:22.271Z,17.80
2022-08-02T05:38:51.161Z,17.80
2022-08-02T05:41:19.278Z,17.80
2022-08-02T05:43:47.451Z,18.00
2022-08-02T05:46:15.481Z,18.00
2022-08-02T05:48:44.934Z,18.10
2022-08-02T05:51:14.083Z,18.20
2022-08-02T05:53:47.685Z,18.20
2022-08-02T05:56:19.360Z,18.10
2022-08-02T05:58:52.302Z,18.20
2022-08-02T06:01:24.991Z,18.30
2022-08-02T06:03:53.383Z,18.00
2022-08-02T06:06:23.408Z,18.20
2022-08-02T06:08:55.540Z,18.30
2022-08-02T06:11:24.240Z,18.20
2022-08-02T06:13:52.780Z,18.40
2022-08-02T06:16:32.112Z,18.30
2022-08-02T06:19:01.318Z,18.30
2022-08-02T06:22:34.022Z,18.40
2022-08-02T06:24:20.288Z,18.40
2022-08-02T06:26:52.454Z,18.40
2022-08-02T06:29:20.643Z,18.40
2022-08-02T06:31:51.621Z,18.60
2022-08-02T06:34:19.747Z,18.60
2022-08-02T06:36:51.675Z,18.80
2022-08-02T06:39:23.430Z,18.70
2022-08-02T06:41:51.662Z,18.70
2022-08-02T06:44:45.922Z,18.80
2022-08-02T06:47:11.923Z,18.70
2022-08-02T06:49:51.594Z,19.00
2022-08-02T06:52:27.071Z,19.10
2022-08-02T06:54:58.032Z,19.10
2022-08-02T06:57:26.195Z,19.00
2022-08-02T06:59:54.180Z,19.10
2022-08-02T07:02:22.428Z,19.20
2022-08-02T07:04:51.410Z,19.10
2022-08-02T07:07:19.947Z,19.10
2022-08-02T07:10:00.408Z,19.10
2022-08-02T07:12:31.467Z,19.10
2022-08-02T07:14:59.706Z,19.20
2022-08-02T07:17:28.052Z,19.40
2022-08-02T07:19:56.138Z,19.40
2022-08-02T07:22:24.617Z,19.40
2022-08-02T07:24:52.932Z,19.50
2022-08-02T07:27:21.042Z,19.40
2022-08-02T07:29:50.468Z,19.50
2022-08-02T07:32:18.836Z,19.60
2022-08-02T07:34:51.184Z,20.00
2022-08-02T07:37:53.871Z,20.40
2022-08-02T07:40:14.683Z,20.80
2022-08-02T07:42:44.009Z,21.30
2022-08-02T07:45:14.129Z,21.60
2022-08-02T07:47:42.683Z,21.80
2022-08-02T07:50:12.340Z,22.10
2022-08-02T07:52:40.974Z,22.80
2022-08-02T07:55:09.784Z,23.20
2022-08-02T07:57:41.257Z,23.20
2022-08-02T08:00:16.090Z,23.50
2022-08-02T08:02:44.539Z,23.80
2022-08-02T08:05:12.982Z,24.00
2022-08-02T08:07:41.446Z,24.20
2022-08-02T08:10:10.312Z,24.50
2022-08-02T08:12:38.352Z,24.90
2022-08-02T08:15:07.173Z,24.80
2022-08-02T08:17:36.710Z,24.80
2022-08-02T08:20:05.183Z,24.90
2022-08-02T08:22:33.177Z,25.20
2022-08-02T08:25:01.218Z,25.20
2022-08-02T08:27:29.280Z,24.90
2022-08-02T08:29:57.274Z,24.90
2022-08-02T08:32:25.718Z,25.20
2022-08-02T08:34:55.365Z,25.30
2022-08-02T08:37:23.290Z,25.30
2022-08-02T08:39:56.926Z,25.60
2022-08-02T08:42:27.315Z,25.60
2022-08-02T08:44:56.589Z,25.70
2022-08-02T08:47:25.717Z,25.40
2022-08-02T08:49:55.144Z,25.40
2022-08-02T08:52:23.201Z,25.50
2022-08-02T08:54:51.276Z,25.70
2022-08-02T08:57:20.307Z,25.90
2022-08-02T08:59:48.443Z,25.90
2022-08-02T09:02:17.184Z,25.80
2022-08-02T09:04:54.404Z,25.90
2022-08-02T09:07:24.867Z,25.60
2022-08-02T09:09:52.809Z,25.60
2022-08-02T09:12:22.347Z,25.60
2022-08-02T09:14:50.670Z,25.90
2022-08-02T09:17:21.937Z,25.90
2022-08-02T09:19:50.158Z,25.90
2022-08-02T09:22:18.152Z,26.00
2022-08-02T09:24:49.558Z,26.10
2022-08-02T09:27:18.503Z,25.90
2022-08-02T09:30:11.482Z,26.30
2022-08-02T09:32:44.968Z,26.70
2022-08-02T09:35:13.074Z,26.80
2022-08-02T09:37:41.996Z,26.80
2022-08-02T09:40:12.789Z,26.80
2022-08-02T09:42:47.629Z,26.80
2022-08-02T09:45:15.906Z,26.90
2022-08-02T09:47:43.894Z,27.10
2022-08-02T09:50:14.934Z,27.20
2022-08-02T09:52:45.431Z,27.40
2022-08-02T09:55:16.730Z,27.60
2022-08-02T09:57:51.020Z,27.70
2022-08-02T10:00:31.493Z,27.90
2022-08-02T10:03:09.325Z,28.10
2022-08-02T10:05:55.776Z,27.90
2022-08-02T10:08:24.950Z,27.50
2022-08-02T10:11:00.652Z,27.60
2022-08-02T10:13:32.435Z,28.10
2022-08-02T10:16:00.471Z,28.00
2022-08-02T10:18:38.833Z,28.00
2022-08-02T10:21:08.650Z,28.30
2022-08-02T10:23:36.685Z,28.30
2022-08-02T10:26:06.188Z,28.30
2022-08-02T10:28:34.180Z,28.30
2022-08-02T10:31:04.772Z,28.70
2022-08-02T10:33:33.097Z,28.80
2022-08-02T10:36:07.128Z,28.90
2022-08-02T10:38:35.936Z,28.60
2022-08-02T10:41:05.534Z,28.40
2022-08-02T10:43:57.523Z,28.60
2022-08-02T10:46:31.293Z,28.30
2022-08-02T10:49:18.487Z,28.70
2022-08-02T10:52:07.081Z,28.90
2022-08-02T10:54:36.914Z,29.10
2022-08-02T10:57:16.171Z,29.20
2022-08-02T10:59:44.490Z,29.50
2022-08-02T11:02:13.030Z,29.50
2022-08-02T11:05:05.001Z,29.30
2022-08-02T11:07:33.891Z,29.10
2022-08-02T11:10:01.850Z,29.20
2022-08-02T11:12:31.285Z,29.30
2022-08-02T11:15:00.669Z,29.50
2022-08-02T11:17:38.105Z,29.20
2022-08-02T11:20:18.878Z,29.30
2022-08-02T11:22:47.517Z,29.20
2022-08-02T11:26:01.387Z,28.80
2022-08-02T11:28:25.254Z,28.20
2022-08-02T11:31:00.831Z,28.60
2022-08-02T11:33:33.071Z,28.90
2022-08-02T11:36:05.695Z,29.10
2022-08-02T11:38:33.878Z,29.20
2022-08-02T11:41:09.738Z,29.10
2022-08-02T11:43:39.914Z,29.10
2022-08-02T11:46:14.019Z,29.40
2022-08-02T11:48:42.595Z,29.60
2022-08-02T11:51:12.888Z,29.50
2022-08-02T11:53:45.993Z,28.50
2022-08-02T11:56:14.102Z,28.30
2022-08-02T11:59:04.249Z,28.00
2022-08-02T12:01:32.326Z,28.30
2022-08-02T12:04:13.317Z,28.60
2022-08-02T12:06:41.244Z,28.60
2022-08-02T12:09:17.642Z,28.70
2022-08-02T12:11:49.470Z,28.40
2022-08-02T12:14:19.056Z,28.30
2022-08-02T12:17:04.897Z,28.00
2022-08-02T12:19:32.774Z,27.70
2022-08-02T12:22:15.104Z,27.80
2022-08-02T12:24:45.735Z,28.10
2022-08-02T12:27:29.299Z,28.30
2022-08-02T12:30:02.714Z,28.60
2022-08-02T12:32:30.635Z,28.90
2022-08-02T12:35:09.821Z,28.90
2022-08-02T12:37:38.288Z,28.90
2022-08-02T12:40:24.977Z,29.00
2022-08-02T12:42:55.563Z,29.10
2022-08-02T12:45:25.202Z,29.30
2022-08-02T12:47:53.904Z,28.80
2022-08-02T12:50:25.206Z,28.60
2022-08-02T12:53:03.464Z,28.40
2022-08-02T12:55:59.391Z,28.70
2022-08-02T12:58:20.519Z,28.30
2022-08-02T13:00:55.057Z,28.60
2022-08-02T13:04:11.362Z,28.80
2022-08-02T13:06:41.938Z,29.00
2022-08-02T13:08:59.817Z,29.10
2022-08-02T13:11:27.932Z,28.90
2022-08-02T13:13:55.879Z,28.70
2022-08-02T13:16:30.780Z,28.90
2022-08-02T13:18:59.268Z,28.60
2022-08-02T13:21:41.090Z,28.40
2022-08-02T13:24:33.275Z,28.40
2022-08-02T13:27:04.483Z,28.10
2022-08-02T13:29:35.994Z,28.20
2022-08-02T13:32:05.384Z,28.60
2022-08-02T13:34:33.395Z,28.80
2022-08-02T13:37:01.444Z,28.60
2022-08-02T13:39:29.344Z,28.50
2022-08-02T13:41:57.240Z,28.90
2022-08-02T13:44:25.296Z,29.10
2022-08-02T13:46:53.210Z,29.10
2022-08-02T13:49:49.574Z,29.10
2022-08-02T13:52:10.794Z,29.10
2022-08-02T13:54:39.143Z,28.80
2022-08-02T13:57:07.112Z,28.90
2022-08-02T13:59:56.626Z,28.90
2022-08-02T14:02:23.144Z,28.80
2022-08-02T14:04:52.436Z,28.80
2022-08-02T14:07:20.470Z,28.90
2022-08-02T14:09:48.312Z,28.70
2022-08-02T14:12:16.732Z,28.90
2022-08-02T14:14:44.848Z,28.60
2022-08-02T14:17:13.529Z,28.60
2022-08-02T14:19:41.660Z,28.30
2022-08-02T14:22:21.369Z,28.40
2022-08-02T14:24:49.435Z,28.20
2022-08-02T14:27:17.389Z,28.10
2022-08-02T14:29:46.694Z,28.20
2022-08-02T14:32:14.740Z,28.40
2022-08-02T14:34:44.253Z,28.10
2022-08-02T14:37:13.606Z,28.20
2022-08-02T14:40:00.475Z,28.40
2022-08-02T14:42:28.980Z,28.60
2022-08-02T14:44:56.864Z,28.50
2022-08-02T14:47:24.719Z,28.30
2022-08-02T14:49:52.889Z,28.50
2022-08-02T14:52:22.279Z,28.70
2022-08-02T14:54:50.493Z,28.40
2022-08-02T14:57:18.466Z,28.30
2022-08-02T14:59:47.321Z,28.20
2022-08-02T15:02:15.753Z,28.40
2022-08-02T15:04:46.014Z,28.10
2022-08-02T15:07:17.408Z,28.40
2022-08-02T15:09:46.787Z,28.30
2022-08-02T15:12:15.279Z,28.40
2022-08-02T15:14:43.737Z,28.50
2022-08-02T15:17:11.660Z,28.40
2022-08-02T15:19:57.538Z,28.40
2022-08-02T15:22:28.937Z,28.40
2022-08-02T15:24:58.457Z,28.20
2022-08-02T15:27:26.667Z,28.00
2022-08-02T15:30:00.188Z,27.80
2022-08-02T15:32:28.467Z,27.70
2022-08-02T15:34:56.399Z,27.80
2022-08-02T15:37:24.406Z,27.80
2022-08-02T15:39:53.438Z,27.70
2022-08-02T15:42:30.713Z,27.70
2022-08-02T15:44:59.438Z,27.60
2022-08-02T15:47:27.449Z,27.50
2022-08-02T15:49:55.451Z,27.60
2022-08-02T15:52:23.707Z,27.50
2022-08-02T15:54:52.053Z,27.40
2022-08-02T15:57:19.949Z,27.30
2022-08-02T15:59:49.312Z,27.50
2022-08-02T16:02:19.062Z,27.50
2022-08-02T16:04:47.408Z,27.40
2022-08-02T16:07:15.619Z,27.50
2022-08-02T16:09:43.582Z,27.30
2022-08-02T16:12:11.824Z,27.10
2022-08-02T16:14:39.984Z,27.20
2022-08-02T16:17:09.270Z,27.30
2022-08-02T16:19:48.429Z,27.10
2022-08-02T16:22:17.777Z,26.90
2022-08-02T16:24:45.677Z,26.80
2022-08-02T16:27:13.530Z,26.80
2022-08-02T16:29:41.389Z,26.70
2022-08-02T16:32:11.430Z,26.80
2022-08-02T16:35:07.178Z,26.70
2022-08-02T16:37:27.694Z,26.80
2022-08-02T16:40:16.153Z,26.80
2022-08-02T16:42:50.622Z,26.60
2022-08-02T16:45:21.034Z,26.50
2022-08-02T16:47:57.245Z,26.50
2022-08-02T16:50:27.438Z,26.40
2022-08-02T16:52:57.202Z,26.40
2022-08-02T16:55:26.322Z,26.40
2022-08-02T16:58:14.406Z,26.40
2022-08-02T17:00:46.718Z,26.40
2022-08-02T17:03:17.467Z,26.30
2022-08-02T17:05:56.533Z,26.40
2022-08-02T17:08:31.900Z,26.40
2022-08-02T17:11:03.710Z,26.30
2022-08-02T17:13:34.466Z,26.30
2022-08-02T17:16:25.502Z,26.20
2022-08-02T17:18:56.311Z,26.30
2022-08-02T17:21:24.551Z,26.10
2022-08-02T17:24:05.471Z,26.20
2022-08-02T17:26:36.867Z,26.10
2022-08-02T17:29:16.370Z,25.90
2022-08-02T17:32:05.528Z,25.80
2022-08-02T17:34:39.813Z,25.70
2022-08-02T17:37:17.287Z,25.70
2022-08-02T17:39:51.855Z,25.70
2022-08-02T17:42:23.719Z,25.70
2022-08-02T17:44:52.549Z,25.70
2022-08-02T17:47:20.674Z,25.70
2022-08-02T17:49:52.849Z,25.70
2022-08-02T17:52:49.976Z,25.60
2022-08-02T17:55:14.195Z,25.50
2022-08-02T18:00:34.207Z,25.40
2022-08-02T18:05:53.546Z,25.40
2022-08-02T18:08:24.052Z,25.30
2022-08-02T18:10:52.574Z,25.20
2022-08-02T18:13:20.608Z,25.20
2022-08-02T18:15:48.761Z,25.00
2022-08-02T18:18:19.293Z,25.00
2022-08-02T18:21:21.973Z,24.90
2022-08-02T18:23:48.750Z,24.90
2022-08-02T18:26:18.143Z,24.90
2022-08-02T18:28:49.023Z,24.90
2022-08-02T18:31:22.727Z,24.80
2022-08-02T18:33:57.761Z,24.70
2022-08-02T18:36:30.680Z,24.60
2022-08-02T18:39:00.002Z,24.50
2022-08-02T18:41:37.892Z,24.40
2022-08-02T18:44:06.481Z,24.40
2022-08-02T18:46:34.708Z,24.30
2022-08-02T18:49:06.684Z,24.20
2022-08-02T18:51:44.725Z,24.10
2022-08-02T18:54:12.727Z,24.00
2022-08-02T18:56:40.641Z,24.10
2022-08-02T18:59:15.259Z,24.00
2022-08-02T19:01:51.047Z,23.90
2022-08-02T19:04:26.812Z,23.70
2022-08-02T19:07:05.465Z,23.60
2022-08-02T19:09:35.644Z,23.40
2022-08-02T19:12:04.332Z,23.20
2022-08-02T19:14:32.226Z,23.20
2022-08-02T19:17:15.779Z,23.10
2022-08-02T19:19:48.651Z,23.10
2022-08-02T19:22:20.696Z,22.90
2022-08-02T19:24:51.606Z,22.80
2022-08-02T19:27:25.802Z,22.90
2022-08-02T19:29:59.876Z,22.80
2022-08-02T19:32:42.116Z,22.90
2022-08-02T19:35:30.036Z,22.80
2022-08-02T19:38:07.161Z,22.70
2022-08-02T19:40:35.110Z,22.70
2022-08-02T19:44:23.978Z,22.60
2022-08-02T19:45:51.634Z,22.60
2022-08-02T19:48:23.613Z,22.50
2022-08-02T19:50:59.199Z,22.60
2022-08-02T19:53:48.117Z,22.60
2022-08-02T19:56:20.200Z,22.40
2022-08-02T19:58:50.299Z,22.40
2022-08-02T20:01:27.007Z,22.30
2022-08-02T20:04:27.243Z,22.40
2022-08-02T20:06:55.135Z,22.30
2022-08-02T20:12:16.588Z,22.10
2022-08-02T20:14:50.789Z,22.10
2022-08-02T20:17:20.674Z,22.00
2022-08-02T20:19:52.244Z,21.90
2022-08-02T20:22:20.201Z,21.80
2022-08-02T20:24:49.650Z,21.60
2022-08-02T20:27:23.868Z,21.60
2022-08-02T20:29:52.706Z,21.60
2022-08-02T20:32:23.890Z,21.60
2022-08-02T20:34:52.539Z,21.50
2022-08-02T20:38:00.765Z,21.40
2022-08-02T20:42:59.702Z,21.40
2022-08-02T20:45:27.785Z,21.30
2022-08-02T20:47:55.885Z,21.20
2022-08-02T20:50:45.641Z,21.20
2022-08-02T20:53:24.132Z,21.10
2022-08-02T20:55:55.836Z,21.00
2022-08-02T20:58:27.065Z,20.90
2022-08-02T21:00:58.690Z,21.00
2022-08-02T21:06:16.933Z,20.80
2022-08-02T21:08:45.986Z,20.70
2022-08-02T21:11:16.512Z,20.60
2022-08-02T21:13:47.445Z,20.60
2022-08-02T21:16:32.293Z,20.60
2022-08-02T21:19:01.763Z,20.70
2022-08-02T21:21:30.088Z,20.60
2022-08-02T21:23:58.771Z,20.60
2022-08-02T21:26:31.255Z,20.50
2022-08-02T21:29:00.739Z,20.50
2022-08-02T21:31:33.427Z,20.50
2022-08-02T21:34:03.972Z,20.40
2022-08-02T21:36:50.477Z,20.30
2022-08-02T21:39:18.579Z,20.20
2022-08-02T21:41:47.797Z,20.10
2022-08-02T21:44:16.409Z,20.10
2022-08-02T21:46:45.505Z,20.10
2022-08-02T21:49:15.055Z,20.00
2022-08-02T21:51:48.884Z,19.90
2022-08-02T21:54:19.970Z,19.70
2022-08-02T21:56:49.868Z,19.80
2022-08-02T21:59:18.043Z,19.70
2022-08-02T22:01:54.069Z,19.70
2022-08-02T22:04:22.332Z,19.60
2022-08-02T22:06:50.298Z,19.60
2022-08-02T22:09:44.081Z,19.50
2022-08-02T22:12:10.156Z,19.40
2022-08-02T22:14:40.889Z,19.40
2022-08-02T22:17:13.639Z,19.40
2022-08-02T22:19:53.740Z,19.40
2022-08-02T22:22:28.251Z,19.20
2022-08-02T22:24:57.017Z,19.20
2022-08-02T22:28:11.963Z,19.10
2022-08-02T22:30:14.781Z,19.00
2022-08-02T22:33:00.235Z,19.10
2022-08-02T22:35:28.851Z,19.10
2022-08-02T22:38:16.609Z,19.10
2022-08-02T22:40:44.494Z,19.00
2022-08-02T22:46:01.528Z,18.90
2022-08-02T22:48:29.700Z,18.90
2022-08-02T22:50:57.514Z,18.80
2022-08-02T22:53:35.727Z,18.70
2022-08-02T22:56:04.330Z,18.60
2022-08-02T22:58:33.658Z,18.60
2022-08-02T22:58:49.104Z,25.50
2022-08-02T22:58:56.964Z,20.80
2022-08-02T22:58:58.831Z,25.40
2022-08-02T22:59:05.858Z,21.40
2022-08-02T22:59:08.008Z,22.20
2022-08-02T23:01:01.554Z,18.60
2022-08-02T23:03:29.660Z,18.60
2022-08-02T23:05:57.464Z,18.50
2022-08-02T23:08:25.321Z,18.50
2022-08-02T23:10:53.153Z,18.40
2022-08-02T23:13:24.233Z,18.40
2022-08-02T23:16:13.755Z,18.40
2022-08-02T23:18:59.317Z,18.40
2022-08-02T23:21:45.720Z,18.40
2022-08-02T23:24:22.440Z,18.30
2022-08-02T23:26:50.305Z,18.30
2022-08-02T23:29:18.164Z,18.20
2022-08-02T23:31:47.337Z,18.20
2022-08-02T23:34:15.341Z,18.00
2022-08-02T23:36:43.184Z,18.00
2022-08-02T23:39:11.054Z,18.10
2022-08-02T23:41:38.886Z,18.10
2022-08-02T23:44:15.085Z,18.00
2022-08-02T23:46:43.291Z,17.90
2022-08-02T23:49:13.754Z,17.90
2022-08-02T23:51:41.664Z,17.90
2022-08-02T23:54:09.582Z,17.90
2022-08-02T23:56:37.465Z,17.80
2022-08-02T23:59:05.454Z,17.80
